Startpagina
METAR-TAF:

METAR-TAF

Vliegvelden :

Calcutta, India

breedte: 22-39N, lengte: 088-27E, hoogte: 4 m

Actueel weer

Dit bericht is 35 minuten geleden gemaakt, om 21:30 UTC
Wind 3 kt uit het westen
Temperatuur 30°C
Vochtigheid 84%
Druk 996 hPa
Zicht: 3200 m
Weinig wolken op 2000 ft
Verspreide wolken op 10000 ft
Heiigheid

METAR: VECC 182130Z 28003KT 3200 HZ FEW020 SCT100 30/27 Q0996 NOSIG

Tijdstip: 03:35 (22:05 UTC)

Verwachting

Dit bericht is 2 uur en het 5 minuten geleden gemaakt, om 20:00 UTC
Verwachting geldig van 18 om 21 UTC tot 19 om 06 UTC
Wind 5 kt uit het zuiden
Zicht: 2800 m
Verspreide wolken op 1800 ft
Gebroken wolken op 10000 ft
lichte regen, Heiigheid
Wijzigt naar
van 19 om 02 UTC tot 19 om 04 UTC
Wind 5 kt uit het oostzuidoosten
Zicht: 3500 m
lichte regen, Heiigheid

TAF: VECC 182000Z 1821/1906 18005KT 2800 -RA HZ SCT018 BKN100 BECMG 1902/1904 12005KT 3500 -RA HZ

Waarnemingen en weersverwachtingen van meer dan 4000 vliegvelden (METAR en TAF).

De beschikbare stations zijn de gele en rode punten op de kaart.

Ga met uw muis naar het station om de naam te zien.

Klik dan om waarnemingen en weersverwachtingen te zien.

kaart wijzigen: klik op de groene knoppen met een zwart kruis om in te zoomen, op de groene knop met een streepje om uit te zoomen of op de groene pijlen voor aangrenzende kaarten.


METAR-TAF: